createdAt,value
2023-03-27T00:01:16.486Z,6.40
2023-03-27T00:03:44.551Z,6.50
2023-03-27T00:06:17.014Z,6.40
2023-03-27T00:08:46.459Z,6.40
2023-03-27T00:11:14.607Z,6.40
2023-03-27T00:13:49.130Z,6.40
2023-03-27T00:16:17.292Z,6.30
2023-03-27T00:18:45.107Z,6.30
2023-03-27T00:21:12.178Z,6.30
2023-03-27T00:23:39.028Z,6.20
2023-03-27T00:26:07.219Z,6.20
2023-03-27T00:28:35.447Z,6.20
2023-03-27T00:31:03.056Z,6.20
2023-03-27T00:33:30.354Z,6.10
2023-03-27T00:35:58.392Z,6.10
2023-03-27T00:38:25.592Z,6.00
2023-03-27T00:40:55.160Z,6.00
2023-03-27T00:43:36.263Z,5.90
2023-03-27T00:46:31.738Z,5.90
2023-03-27T00:49:03.564Z,5.90
2023-03-27T00:51:31.431Z,5.80
2023-03-27T00:53:59.835Z,5.80
2023-03-27T00:56:27.065Z,5.70
2023-03-27T00:59:02.022Z,5.60
2023-03-27T01:01:31.315Z,5.60
2023-03-27T01:04:04.291Z,5.50
2023-03-27T01:06:32.276Z,5.40
2023-03-27T01:08:59.377Z,5.30
2023-03-27T01:11:49.338Z,5.30
2023-03-27T01:14:54.211Z,5.20
2023-03-27T01:17:36.008Z,5.10
2023-03-27T01:20:30.351Z,5.10
2023-03-27T01:23:07.213Z,5.00
2023-03-27T01:26:03.154Z,5.00
2023-03-27T01:28:32.767Z,4.90
2023-03-27T01:31:18.284Z,4.80
2023-03-27T01:34:17.767Z,4.80
2023-03-27T01:36:55.948Z,4.80
2023-03-27T01:39:35.686Z,4.70
2023-03-27T01:42:06.326Z,4.70
2023-03-27T01:44:43.649Z,4.60
2023-03-27T01:47:37.423Z,4.50
2023-03-27T01:50:19.469Z,4.40
2023-03-27T01:53:11.615Z,4.40
2023-03-27T01:55:43.340Z,4.30
2023-03-27T01:58:33.231Z,4.30
2023-03-27T02:01:02.556Z,4.30
2023-03-27T02:03:43.821Z,4.30
2023-03-27T02:06:18.208Z,4.30
2023-03-27T02:09:11.794Z,4.20
2023-03-27T02:11:45.098Z,4.20
2023-03-27T02:14:18.235Z,4.20
2023-03-27T02:16:51.506Z,4.20
2023-03-27T02:19:26.602Z,4.20
2023-03-27T02:21:53.471Z,4.20
2023-03-27T02:24:20.226Z,4.20
2023-03-27T02:26:54.233Z,4.10
2023-03-27T02:29:49.927Z,4.10
2023-03-27T02:32:17.341Z,4.10
2023-03-27T02:35:13.531Z,4.10
2023-03-27T02:37:55.830Z,4.00
2023-03-27T02:40:40.382Z,4.00
2023-03-27T02:43:17.140Z,4.00
2023-03-27T02:45:54.728Z,4.00
2023-03-27T02:48:34.420Z,4.00
2023-03-27T02:51:03.877Z,3.90
2023-03-27T02:53:36.682Z,3.90
2023-03-27T02:56:08.615Z,3.90
2023-03-27T02:58:38.130Z,3.90
2023-03-27T03:01:09.590Z,3.80
2023-03-27T03:03:44.813Z,3.80
2023-03-27T03:06:11.792Z,3.70
2023-03-27T03:08:39.279Z,3.70
2023-03-27T03:11:11.958Z,3.70
2023-03-27T03:13:39.013Z,3.70
2023-03-27T03:16:07.028Z,3.60
2023-03-27T03:18:34.414Z,3.60
2023-03-27T03:21:01.593Z,3.50
2023-03-27T03:23:28.575Z,3.40
2023-03-27T03:25:56.962Z,3.40
2023-03-27T03:28:27.401Z,3.40
2023-03-27T03:30:54.760Z,3.40
2023-03-27T03:33:21.908Z,3.40
2023-03-27T03:35:50.488Z,3.30
2023-03-27T03:38:25.099Z,3.30
2023-03-27T03:40:56.582Z,3.30
2023-03-27T03:43:25.839Z,3.30
2023-03-27T03:45:53.607Z,3.40
2023-03-27T03:48:21.426Z,3.40
2023-03-27T03:50:49.777Z,3.50
2023-03-27T03:53:18.836Z,3.50
2023-03-27T03:55:46.376Z,3.50
2023-03-27T03:58:13.530Z,3.40
2023-03-27T04:00:40.570Z,3.40
2023-03-27T04:03:09.402Z,3.30
2023-03-27T04:05:38.171Z,3.40
2023-03-27T04:08:07.354Z,3.40
2023-03-27T04:10:36.262Z,3.60
2023-03-27T04:13:03.294Z,3.60
2023-03-27T04:15:30.346Z,3.70
2023-03-27T04:17:58.115Z,3.80
2023-03-27T04:20:28.211Z,3.80
2023-03-27T04:22:55.958Z,3.80
2023-03-27T04:25:24.635Z,3.70
2023-03-27T04:27:51.922Z,3.70
2023-03-27T04:30:23.704Z,3.70
2023-03-27T04:32:52.357Z,3.70
2023-03-27T04:35:20.824Z,3.70
2023-03-27T04:37:48.400Z,3.70
2023-03-27T04:40:18.209Z,3.60
2023-03-27T04:42:45.416Z,3.60
2023-03-27T04:45:15.304Z,3.60
2023-03-27T04:47:42.750Z,3.50
2023-03-27T04:50:11.104Z,3.50
2023-03-27T04:52:38.777Z,3.50
2023-03-27T04:55:06.556Z,3.40
2023-03-27T04:57:33.396Z,3.40
2023-03-27T05:00:01.023Z,3.40
2023-03-27T05:02:28.190Z,3.40
2023-03-27T05:05:02.239Z,3.50
2023-03-27T05:07:30.514Z,3.50
2023-03-27T05:09:57.769Z,3.50
2023-03-27T05:12:24.518Z,3.60
2023-03-27T05:14:51.334Z,3.60
2023-03-27T05:17:18.089Z,3.70
2023-03-27T05:19:45.318Z,3.70
2023-03-27T05:22:13.792Z,3.80
2023-03-27T05:24:40.541Z,3.80
2023-03-27T05:27:07.305Z,3.80
2023-03-27T05:29:46.364Z,3.90
2023-03-27T05:32:14.060Z,4.00
2023-03-27T05:34:40.805Z,4.00
2023-03-27T05:37:07.628Z,4.10
2023-03-27T05:39:36.962Z,4.20
2023-03-27T05:42:04.220Z,4.30
2023-03-27T05:44:31.063Z,4.30
2023-03-27T05:46:58.095Z,4.40
2023-03-27T05:49:24.819Z,4.40
2023-03-27T05:51:52.658Z,4.60
2023-03-27T05:54:19.444Z,4.60
2023-03-27T05:56:46.581Z,4.60
2023-03-27T05:59:13.394Z,4.70
2023-03-27T06:01:40.385Z,4.60
2023-03-27T06:04:09.308Z,4.70
2023-03-27T06:06:36.513Z,4.60
2023-03-27T06:09:03.800Z,4.60
2023-03-27T06:11:30.860Z,4.60
2023-03-27T06:13:58.688Z,4.70
2023-03-27T06:16:25.981Z,4.70
2023-03-27T06:18:53.120Z,4.70
2023-03-27T06:21:22.586Z,4.70
2023-03-27T06:23:49.394Z,4.70
2023-03-27T06:26:16.145Z,4.60
2023-03-27T06:28:43.578Z,4.70
2023-03-27T06:31:10.442Z,4.60
2023-03-27T06:33:39.885Z,4.60
2023-03-27T06:36:07.275Z,4.60
2023-03-27T06:38:34.076Z,4.60
2023-03-27T06:41:00.906Z,4.70
2023-03-27T06:43:27.644Z,4.70
2023-03-27T06:45:54.667Z,4.70
2023-03-27T06:48:22.602Z,4.80
2023-03-27T06:50:51.950Z,4.80
2023-03-27T06:55:50.812Z,5.00
2023-03-27T06:58:19.175Z,5.00
2023-03-27T07:00:47.186Z,5.10
2023-03-27T07:03:15.113Z,5.10
2023-03-27T07:05:42.820Z,5.10
2023-03-27T07:08:21.752Z,5.20
2023-03-27T07:10:59.965Z,5.30
2023-03-27T07:13:35.866Z,5.40
2023-03-27T07:16:02.726Z,5.50
2023-03-27T07:18:29.553Z,5.40
2023-03-27T07:20:56.437Z,5.30
2023-03-27T07:23:23.274Z,5.30
2023-03-27T07:25:51.563Z,5.30
2023-03-27T07:28:18.539Z,5.30
2023-03-27T07:30:45.413Z,5.30
2023-03-27T07:33:13.018Z,5.30
2023-03-27T07:35:48.452Z,5.40
2023-03-27T07:38:16.591Z,5.40
2023-03-27T07:40:46.011Z,5.50
2023-03-27T07:43:13.381Z,5.50
2023-03-27T07:45:41.265Z,5.50
2023-03-27T07:48:10.914Z,5.50
2023-03-27T07:50:38.266Z,5.50
2023-03-27T07:53:06.457Z,5.50
2023-03-27T07:55:36.817Z,5.50
2023-03-27T07:58:04.408Z,5.50
2023-03-27T08:00:32.544Z,5.50
2023-03-27T08:03:10.771Z,5.60
2023-03-27T08:05:38.481Z,5.60
2023-03-27T08:08:05.763Z,5.50
2023-03-27T08:10:32.640Z,5.50
2023-03-27T08:12:59.527Z,5.50
2023-03-27T08:15:26.329Z,5.50
2023-03-27T08:17:55.246Z,5.60
2023-03-27T08:20:23.898Z,5.50
2023-03-27T08:22:52.656Z,5.50
2023-03-27T08:25:22.396Z,5.60
2023-03-27T08:27:49.894Z,5.60
2023-03-27T08:30:17.300Z,5.60
2023-03-27T08:32:44.615Z,5.60
2023-03-27T08:35:12.507Z,5.60
2023-03-27T08:37:39.697Z,5.80
2023-03-27T08:40:13.781Z,5.70
2023-03-27T08:42:44.108Z,5.70
2023-03-27T08:45:26.357Z,5.60
2023-03-27T08:48:18.172Z,5.40
2023-03-27T08:50:52.813Z,5.40
2023-03-27T08:54:02.124Z,5.30
2023-03-27T08:56:28.923Z,5.30
2023-03-27T08:58:55.864Z,5.40
2023-03-27T09:01:33.579Z,5.30
2023-03-27T09:04:16.070Z,5.30
2023-03-27T09:06:54.762Z,5.30
2023-03-27T09:09:40.211Z,5.20
2023-03-27T09:12:20.496Z,5.20
2023-03-27T09:14:57.264Z,5.10
2023-03-27T09:17:31.754Z,5.10
2023-03-27T09:20:07.240Z,5.10
2023-03-27T09:22:44.319Z,5.10
2023-03-27T09:25:35.629Z,5.00
2023-03-27T09:28:03.480Z,4.90
2023-03-27T09:30:34.325Z,5.00
2023-03-27T09:33:06.197Z,4.90
2023-03-27T09:35:35.372Z,4.90
2023-03-27T09:38:10.125Z,5.00
2023-03-27T09:40:44.489Z,4.90
2023-03-27T09:43:43.294Z,4.90
2023-03-27T09:46:12.090Z,4.80
2023-03-27T09:48:47.082Z,4.80
2023-03-27T09:51:38.369Z,4.80
2023-03-27T09:54:06.403Z,4.80
2023-03-27T09:56:42.949Z,4.70
2023-03-27T09:59:33.031Z,4.60
2023-03-27T10:02:09.478Z,4.60
2023-03-27T10:04:36.697Z,4.60
2023-03-27T10:07:08.091Z,4.60
2023-03-27T10:09:36.919Z,4.60
2023-03-27T10:12:09.326Z,4.60
2023-03-27T10:14:47.466Z,4.60
2023-03-27T10:17:26.866Z,4.60
2023-03-27T10:20:00.221Z,4.50
2023-03-27T10:22:40.147Z,4.50
2023-03-27T10:25:30.873Z,4.40
2023-03-27T10:28:19.660Z,4.50
2023-03-27T10:30:47.051Z,4.50
2023-03-27T10:33:30.037Z,4.60
2023-03-27T10:35:57.712Z,4.60
2023-03-27T10:38:25.300Z,4.70
2023-03-27T10:40:52.510Z,4.70
2023-03-27T10:43:40.205Z,4.70
2023-03-27T10:46:13.387Z,4.80
2023-03-27T10:48:53.122Z,4.80
2023-03-27T10:51:46.783Z,4.80
2023-03-27T10:54:31.327Z,4.80
2023-03-27T10:57:10.003Z,4.90
2023-03-27T10:59:50.743Z,5.00
2023-03-27T11:02:23.335Z,5.10
2023-03-27T11:04:50.114Z,5.20
2023-03-27T11:07:27.285Z,5.40
2023-03-27T11:10:26.898Z,5.40
2023-03-27T11:13:01.097Z,5.40
2023-03-27T11:15:38.225Z,5.40
2023-03-27T11:18:21.138Z,5.40
2023-03-27T11:20:59.536Z,5.40
2023-03-27T11:23:52.147Z,5.50
2023-03-27T11:26:23.099Z,5.50
2023-03-27T11:29:25.494Z,5.50
2023-03-27T11:31:54.097Z,5.60
2023-03-27T11:34:42.575Z,5.60
2023-03-27T11:37:17.098Z,5.40
2023-03-27T11:39:54.039Z,5.40
2023-03-27T11:42:29.489Z,5.30
2023-03-27T11:44:57.046Z,5.20
2023-03-27T11:47:50.077Z,5.20
2023-03-27T11:50:31.829Z,5.20
2023-03-27T11:53:26.068Z,5.30
2023-03-27T11:56:11.396Z,5.30
2023-03-27T11:59:12.399Z,5.50
2023-03-27T12:01:49.359Z,5.60
2023-03-27T12:04:29.225Z,5.80
2023-03-27T12:07:34.095Z,5.80
2023-03-27T12:10:28.525Z,5.80
2023-03-27T12:13:40.593Z,5.80
2023-03-27T12:16:48.308Z,5.70
2023-03-27T12:19:38.472Z,5.60
2023-03-27T12:22:21.053Z,5.70
2023-03-27T12:25:21.236Z,5.70
2023-03-27T12:27:51.066Z,5.80
2023-03-27T12:30:32.555Z,5.80
2023-03-27T12:33:36.372Z,5.80
2023-03-27T12:36:09.830Z,5.80
2023-03-27T12:38:40.608Z,5.80
2023-03-27T12:41:13.690Z,5.70
2023-03-27T12:43:45.826Z,5.70
2023-03-27T12:46:26.357Z,5.80
2023-03-27T12:48:58.690Z,5.80
2023-03-27T12:51:44.034Z,5.80
2023-03-27T12:54:16.423Z,5.80
2023-03-27T12:56:43.371Z,5.80
2023-03-27T12:59:22.853Z,5.80
2023-03-27T13:02:06.091Z,5.80
2023-03-27T13:04:45.256Z,5.80
2023-03-27T13:07:27.496Z,5.80
2023-03-27T13:10:08.779Z,5.80
2023-03-27T13:12:57.594Z,5.70
2023-03-27T13:15:53.417Z,5.70
2023-03-27T13:18:41.878Z,5.70
2023-03-27T13:21:19.006Z,5.70
2023-03-27T13:23:52.178Z,5.90
2023-03-27T13:26:40.524Z,5.90
2023-03-27T13:29:16.270Z,6.10
2023-03-27T13:31:46.207Z,6.10
2023-03-27T13:34:32.701Z,6.00
2023-03-27T13:37:11.727Z,6.00
2023-03-27T13:39:45.604Z,5.90
2023-03-27T13:42:17.397Z,5.80
2023-03-27T13:44:57.102Z,5.70
2023-03-27T13:47:33.570Z,5.70
2023-03-27T13:50:24.645Z,5.60
2023-03-27T13:53:28.648Z,5.60
2023-03-27T13:56:28.402Z,5.50
2023-03-27T13:59:21.892Z,5.50
2023-03-27T14:02:41.335Z,5.40
2023-03-27T14:05:45.553Z,5.40
2023-03-27T14:08:26.974Z,5.40
2023-03-27T14:11:02.419Z,5.40
2023-03-27T14:14:07.629Z,5.30
2023-03-27T14:16:47.686Z,5.30
2023-03-27T14:19:43.165Z,5.20
2023-03-27T14:22:16.037Z,5.20
2023-03-27T14:25:09.344Z,5.20
2023-03-27T14:27:36.569Z,5.20
2023-03-27T14:30:14.477Z,5.10
2023-03-27T14:32:43.057Z,5.10
2023-03-27T14:35:29.053Z,5.00
2023-03-27T14:38:00.971Z,5.00
2023-03-27T14:40:42.814Z,5.00
2023-03-27T14:43:12.216Z,5.00
2023-03-27T14:45:40.742Z,5.00
2023-03-27T14:48:17.583Z,5.00
2023-03-27T14:50:48.988Z,5.00
2023-03-27T14:53:19.861Z,4.90
2023-03-27T14:55:48.484Z,5.00
2023-03-27T14:58:18.611Z,5.00
2023-03-27T15:00:52.709Z,4.90
2023-03-27T15:03:23.537Z,4.90
2023-03-27T15:06:01.485Z,4.70
2023-03-27T15:08:31.294Z,4.60
2023-03-27T15:10:58.161Z,4.40
2023-03-27T15:13:26.274Z,4.20
2023-03-27T15:15:57.831Z,4.10
2023-03-27T15:19:05.014Z,4.10
2023-03-27T15:21:46.987Z,4.10
2023-03-27T15:24:22.000Z,4.10
2023-03-27T15:26:50.569Z,4.10
2023-03-27T15:29:22.316Z,4.10
2023-03-27T15:31:50.519Z,4.10
2023-03-27T15:34:34.326Z,4.10
2023-03-27T15:37:16.547Z,4.10
2023-03-27T15:40:10.842Z,4.20
2023-03-27T15:43:01.966Z,4.20
2023-03-27T15:46:01.901Z,4.20
2023-03-27T15:48:42.904Z,4.20
2023-03-27T15:51:28.807Z,4.20
2023-03-27T15:53:56.569Z,4.30
2023-03-27T15:56:41.186Z,4.30
2023-03-27T15:59:12.876Z,4.30
2023-03-27T16:01:41.456Z,4.30
2023-03-27T16:04:14.595Z,4.30
2023-03-27T16:06:48.197Z,4.30
2023-03-27T16:09:30.477Z,4.30
2023-03-27T16:11:58.518Z,4.20
2023-03-27T16:14:50.068Z,4.20
2023-03-27T16:17:37.573Z,4.20
2023-03-27T16:20:24.593Z,3.90
2023-03-27T16:22:52.399Z,3.60
2023-03-27T16:25:19.588Z,3.40
2023-03-27T16:27:49.089Z,3.10
2023-03-27T16:30:36.140Z,3.00
2023-03-27T16:33:08.787Z,2.90
2023-03-27T16:35:35.915Z,2.80
2023-03-27T16:38:02.895Z,2.70
2023-03-27T16:40:29.928Z,2.60
2023-03-27T16:42:56.893Z,2.60
2023-03-27T16:45:23.860Z,2.50
2023-03-27T16:47:53.299Z,2.50
2023-03-27T16:50:24.518Z,2.40
2023-03-27T16:52:51.415Z,2.40
2023-03-27T16:55:18.439Z,2.40
2023-03-27T16:57:47.014Z,2.30
2023-03-27T17:00:19.349Z,2.30
2023-03-27T17:02:47.079Z,2.30
2023-03-27T17:05:14.053Z,2.30
2023-03-27T17:07:41.881Z,2.30
2023-03-27T17:10:10.270Z,2.30
2023-03-27T17:12:37.811Z,2.30
2023-03-27T17:15:05.767Z,2.30
2023-03-27T17:17:32.758Z,2.30
2023-03-27T17:20:00.654Z,2.30
2023-03-27T17:22:29.947Z,2.20
2023-03-27T17:25:01.172Z,2.30
2023-03-27T17:27:28.308Z,2.20
2023-03-27T17:29:56.154Z,2.20
2023-03-27T17:32:24.691Z,2.30
2023-03-27T17:34:53.440Z,2.20
2023-03-27T17:37:21.582Z,2.20
2023-03-27T17:39:50.875Z,2.20
2023-03-27T17:42:18.307Z,2.20
2023-03-27T17:44:45.513Z,2.10
2023-03-27T17:47:13.108Z,2.10
2023-03-27T17:49:40.863Z,2.00
2023-03-27T17:52:11.270Z,2.00
2023-03-27T17:54:38.380Z,2.00
2023-03-27T17:57:05.468Z,2.00
2023-03-27T17:59:32.630Z,2.00
2023-03-27T18:01:59.622Z,2.00
2023-03-27T18:04:26.649Z,1.90
2023-03-27T18:06:53.559Z,2.00
2023-03-27T18:09:20.813Z,1.90
2023-03-27T18:11:47.762Z,1.90
2023-03-27T18:14:14.929Z,1.90
2023-03-27T18:16:41.843Z,1.90
2023-03-27T18:19:09.121Z,1.90
2023-03-27T18:21:36.193Z,1.90
2023-03-27T18:24:03.521Z,1.90
2023-03-27T18:26:30.417Z,1.90
2023-03-27T18:28:57.851Z,1.80
2023-03-27T18:31:25.262Z,1.80
2023-03-27T18:33:52.831Z,1.80
2023-03-27T18:36:20.421Z,1.80
2023-03-27T18:38:49.604Z,1.70
2023-03-27T18:41:17.769Z,1.70
2023-03-27T18:43:44.607Z,1.60
2023-03-27T18:46:16.670Z,1.60
2023-03-27T18:48:45.398Z,1.50
2023-03-27T18:51:12.806Z,1.50
2023-03-27T18:53:39.984Z,1.50
2023-03-27T18:56:08.049Z,1.40
2023-03-27T18:58:35.931Z,1.40
2023-03-27T19:01:13.081Z,1.40
2023-03-27T19:03:40.609Z,1.30
2023-03-27T19:06:09.926Z,1.30
2023-03-27T19:08:38.007Z,1.30
2023-03-27T19:11:09.439Z,1.30
2023-03-27T19:13:36.370Z,1.30
2023-03-27T19:16:15.007Z,1.20
2023-03-27T19:18:42.650Z,1.20
2023-03-27T19:21:09.520Z,1.20
2023-03-27T19:23:36.351Z,1.20
2023-03-27T19:26:11.685Z,1.10
2023-03-27T19:28:40.301Z,1.10
2023-03-27T19:31:08.105Z,1.10
2023-03-27T19:33:35.487Z,1.00
2023-03-27T19:36:02.379Z,1.00
2023-03-27T19:38:29.282Z,1.00
2023-03-27T19:40:56.519Z,0.90
2023-03-27T19:43:23.647Z,0.90
2023-03-27T19:46:13.986Z,0.90
2023-03-27T19:48:42.909Z,0.80
2023-03-27T19:51:09.876Z,0.80
2023-03-27T19:53:37.736Z,0.80
2023-03-27T19:56:04.956Z,0.70
2023-03-27T19:58:31.940Z,0.70
2023-03-27T20:00:59.712Z,0.70
2023-03-27T20:03:27.751Z,0.70
2023-03-27T20:06:06.803Z,0.60
2023-03-27T20:08:38.191Z,0.60
2023-03-27T20:11:07.169Z,0.60
2023-03-27T20:13:42.492Z,0.50
2023-03-27T20:16:16.578Z,0.40
2023-03-27T20:18:43.882Z,0.40
2023-03-27T20:21:13.809Z,0.40
2023-03-27T20:23:41.977Z,0.30
2023-03-27T20:26:09.395Z,0.30
2023-03-27T20:28:36.609Z,0.20
2023-03-27T20:31:06.702Z,0.20
2023-03-27T20:33:33.731Z,0.20
2023-03-27T20:36:01.005Z,0.20
2023-03-27T20:38:32.388Z,0.20
2023-03-27T20:41:03.680Z,0.10
2023-03-27T20:43:34.882Z,0.10
2023-03-27T20:46:03.790Z,0.00
2023-03-27T20:48:40.432Z,0.00
2023-03-27T20:51:14.802Z,0.00
2023-03-27T20:53:46.458Z,-0.10
2023-03-27T20:56:14.311Z,-0.10
2023-03-27T20:58:42.451Z,-0.20
2023-03-27T21:01:10.570Z,-0.20
2023-03-27T21:03:41.795Z,-0.20
2023-03-27T21:06:14.483Z,-0.20
2023-03-27T21:08:41.743Z,-0.30
2023-03-27T21:11:08.781Z,-0.30
2023-03-27T21:13:36.837Z,-0.30
2023-03-27T21:16:04.781Z,-0.30
2023-03-27T21:18:31.972Z,-0.40
2023-03-27T21:20:58.845Z,-0.40
2023-03-27T21:23:25.665Z,-0.40
2023-03-27T21:25:53.264Z,-0.40
2023-03-27T21:28:20.256Z,-0.50
2023-03-27T21:30:48.599Z,-0.50
2023-03-27T21:33:16.567Z,-0.50
2023-03-27T21:35:48.617Z,-0.50
2023-03-27T21:38:16.995Z,-0.50
2023-03-27T21:40:45.241Z,-0.60
2023-03-27T21:43:13.134Z,-0.70
2023-03-27T21:45:40.354Z,-0.60
2023-03-27T21:48:07.777Z,-0.70
2023-03-27T21:50:34.880Z,-0.70
2023-03-27T21:53:02.912Z,-0.70
2023-03-27T21:55:29.753Z,-0.80
2023-03-27T21:57:56.834Z,-0.80
2023-03-27T22:00:23.795Z,-0.80
2023-03-27T22:02:50.640Z,-0.80
2023-03-27T22:05:18.011Z,-0.80
2023-03-27T22:07:45.444Z,-0.90
2023-03-27T22:10:13.322Z,-0.90
2023-03-27T22:12:40.167Z,-0.90
2023-03-27T22:15:08.666Z,-0.90
2023-03-27T22:17:36.679Z,-0.90
2023-03-27T22:20:05.725Z,-1.00
2023-03-27T22:22:34.848Z,-0.90
2023-03-27T22:25:01.726Z,-1.00
2023-03-27T22:27:28.721Z,-1.00
2023-03-27T22:29:56.014Z,-1.00
2023-03-27T22:32:22.975Z,-1.10
2023-03-27T22:34:49.927Z,-1.10
2023-03-27T22:37:17.518Z,-1.10
2023-03-27T22:39:44.724Z,-1.10
2023-03-27T22:42:11.583Z,-1.20
2023-03-27T22:44:38.542Z,-1.20
2023-03-27T22:47:05.377Z,-1.20
2023-03-27T22:49:32.219Z,-1.20
2023-03-27T22:51:59.058Z,-1.20
2023-03-27T22:54:25.815Z,-1.30
2023-03-27T22:56:55.145Z,-1.30
2023-03-27T22:59:22.155Z,-1.30
2023-03-27T23:01:49.199Z,-1.40
2023-03-27T23:04:16.061Z,-1.40
2023-03-27T23:06:42.950Z,-1.40
2023-03-27T23:09:10.510Z,-1.40
2023-03-27T23:11:37.448Z,-1.40
2023-03-27T23:14:04.385Z,-1.40
2023-03-27T23:16:31.375Z,-1.50
2023-03-27T23:18:58.286Z,-1.50
2023-03-27T23:21:25.329Z,-1.60
2023-03-27T23:23:52.366Z,-1.60
2023-03-27T23:26:19.248Z,-1.60
2023-03-27T23:28:46.020Z,-1.60
2023-03-27T23:31:18.048Z,-1.60
2023-03-27T23:33:47.537Z,-1.60
2023-03-27T23:36:23.673Z,-1.60
2023-03-27T23:38:54.375Z,-1.60
2023-03-27T23:41:21.751Z,-1.60
2023-03-27T23:43:48.741Z,-1.70
2023-03-27T23:46:16.368Z,-1.70
2023-03-27T23:48:44.280Z,-1.70
2023-03-27T23:51:13.215Z,-1.70
2023-03-27T23:53:40.610Z,-1.70
2023-03-27T23:56:08.175Z,-1.70
2023-03-27T23:58:37.259Z,-1.70
